Lenapah, Oklahoma
Current Conditions -  °F | °C
As of 10:52 AM on Wednesday 26 Nov 2014 (Local Time) from KCFV Reporting Station
Clear Clear  
Wind Chill: 50°   Ceiling: Unl
Heat Index: 50°   Visibility: 10mi
Dew Point: 27°   Wind: 24mph
Humidity: 41%   Direction: 330°NNW
Pressure: 30.08"   Gusts: 32mph
Location:  36.85°N, 95.64°W
Report Text: KCFV 261652Z AUTO 33021G28KT 10SM CLR 10/M03 A3008 RMK AO2 PK WND 34028/1624 SLP190 T01001028
Loading
Personal Weather Stations






























Interactive Weather Map New forecast layout! Learn more

10-Day Weather Forecast

Advertisements
Track Severe Weather on mobile